Time;durP1;ratioP1;P1;durP2;ratioP2;P2;SDS_P1;SDS_P2;PMS_P1;PMS_P2;Temp;Humidity;BMP_temperature;BMP_pressure;BME280_temperature;BME280_humidity;BME280_pressure;Samples;Min_cycle;Max_cycle;Signal;HPM_P1;HPM_P2
2024/01/12 00:02:03;;;;;;;45.33;24.57;;;3.70;99.90;;;;;;5093433;28;20647;-82
2024/01/12 00:04:29;;;;;;;43.03;24.47;;;3.80;99.90;;;;;;5097251;28;20175;-82
2024/01/12 00:06:54;;;;;;;40.73;24.03;;;3.80;99.90;;;;;;5097242;28;20229;-82
2024/01/12 00:09:20;;;;;;;43.73;24.63;;;3.70;99.90;;;;;;5097215;28;20195;-83
2024/01/12 00:11:46;;;;;;;43.77;25.40;;;3.70;99.90;;;;;;5097306;28;20219;-82
2024/01/12 00:14:12;;;;;;;42.07;24.37;;;3.60;99.90;;;;;;5097158;28;20168;-82
2024/01/12 00:16:38;;;;;;;42.93;24.03;;;3.60;99.90;;;;;;5095503;28;20638;-83
2024/01/12 00:19:03;;;;;;;45.97;25.87;;;3.60;99.90;;;;;;5097371;28;20175;-82
2024/01/12 00:21:29;;;;;;;42.63;25.97;;;3.50;99.90;;;;;;5097049;28;20172;-82
2024/01/12 00:23:54;;;;;;;44.33;25.87;;;3.60;99.90;;;;;;5096955;28;20190;-83
2024/01/12 00:26:20;;;;;;;41.23;25.50;;;3.60;99.90;;;;;;5095711;28;20174;-83
2024/01/12 00:28:45;;;;;;;44.30;26.30;;;3.40;99.90;;;;;;5096533;28;20257;-83
2024/01/12 00:31:11;;;;;;;43.27;25.80;;;3.30;99.90;;;;;;5096384;28;20597;-83
2024/01/12 00:33:36;;;;;;;41.07;26.23;;;3.30;99.90;;;;;;5096950;28;20222;-82
2024/01/12 00:36:02;;;;;;;45.57;27.43;;;3.20;99.90;;;;;;5096638;28;20176;-81
2024/01/12 00:38:28;;;;;;;43.80;26.23;;;3.20;99.90;;;;;;5096742;28;20164;-82
2024/01/12 00:40:53;;;;;;;44.87;27.20;;;3.30;99.90;;;;;;5095426;28;20535;-82
2024/01/12 00:43:19;;;;;;;45.50;27.57;;;3.50;99.90;;;;;;5095561;28;20572;-82
2024/01/12 00:45:44;;;;;;;48.70;28.67;;;3.60;99.90;;;;;;5095069;28;20187;-82
2024/01/12 00:48:10;;;;;;;44.77;27.93;;;3.60;99.90;;;;;;5095190;28;20168;-82
2024/01/12 00:50:35;;;;;;;47.70;28.23;;;3.50;99.90;;;;;;5095146;28;20298;-82
2024/01/12 00:53:01;;;;;;;46.10;27.83;;;3.50;99.90;;;;;;5096545;28;20179;-83
2024/01/12 00:55:27;;;;;;;45.97;27.40;;;3.50;99.90;;;;;;5095136;28;20177;-83
2024/01/12 00:57:52;;;;;;;44.63;27.17;;;3.30;99.90;;;;;;5094730;28;20172;-82
2024/01/12 01:00:18;;;;;;;44.57;27.80;;;3.40;99.90;;;;;;5096321;28;20527;-82
2024/01/12 01:02:44;;;;;;;47.37;28.20;;;3.40;99.90;;;;;;5094961;28;20195;-82
2024/01/12 01:05:09;;;;;;;45.50;27.67;;;3.40;99.90;;;;;;5094970;28;20180;-83
2024/01/12 01:07:35;;;;;;;48.27;28.07;;;3.60;99.90;;;;;;5095079;28;20677;-82
2024/01/12 01:10:00;;;;;;;43.93;27.57;;;3.60;99.90;;;;;;5094927;28;20199;-83
2024/01/12 01:12:26;;;;;;;46.17;27.63;;;3.60;99.90;;;;;;5094473;28;20631;-83
2024/01/12 01:14:52;;;;;;;46.67;28.60;;;3.60;99.90;;;;;;5094075;28;20514;-83
2024/01/12 01:17:17;;;;;;;41.73;26.77;;;3.70;99.90;;;;;;5094774;28;20176;-83
2024/01/12 01:19:43;;;;;;;45.93;28.37;;;3.80;99.90;;;;;;5094630;28;20171;-83
2024/01/12 01:22:08;;;;;;;46.53;28.23;;;4.00;99.90;;;;;;5094713;28;20179;-82
2024/01/12 01:24:34;;;;;;;48.87;28.43;;;3.90;99.90;;;;;;5095965;28;20674;-83
2024/01/12 01:26:59;;;;;;;48.57;27.70;;;3.90;99.90;;;;;;5095678;28;20271;-82
2024/01/12 01:29:25;;;;;;;45.53;27.63;;;3.70;99.90;;;;;;5095607;28;20227;-82
2024/01/12 01:31:50;;;;;;;49.73;28.40;;;3.80;99.90;;;;;;5095680;28;20258;-82
2024/01/12 01:34:16;;;;;;;46.00;27.57;;;3.90;99.90;;;;;;5095700;28;20180;-81
2024/01/12 01:36:42;;;;;;;48.53;28.03;;;3.90;99.90;;;;;;5095608;28;20168;-82
2024/01/12 01:39:08;;;;;;;44.40;27.70;;;3.90;99.90;;;;;;5094331;28;20175;-82
2024/01/12 01:41:35;;;;;;;47.37;27.80;;;3.80;99.90;;;;;;5095292;28;20167;-81
2024/01/12 01:44:01;;;;;;;47.97;29.80;;;3.80;99.90;;;;;;5094315;28;20176;-82
2024/01/12 01:46:28;;;;;;;47.20;28.33;;;3.90;99.90;;;;;;5094261;28;20186;-83
2024/01/12 01:48:53;;;;;;;48.83;28.93;;;3.80;99.90;;;;;;5094232;28;20216;-82
2024/01/12 01:51:19;;;;;;;51.23;29.43;;;4.00;99.90;;;;;;5095139;28;20239;-82
2024/01/12 01:53:45;;;;;;;50.40;29.00;;;4.10;99.90;;;;;;5095475;28;20195;-82
2024/01/12 01:56:11;;;;;;;47.50;28.60;;;4.10;99.90;;;;;;5094971;28;20682;-83
2024/01/12 01:58:38;;;;;;;43.33;27.67;;;4.10;99.90;;;;;;5094030;28;20184;-82
2024/01/12 02:01:04;;;;;;;51.73;29.97;;;4.10;99.90;;;;;;5093834;28;20172;-82
2024/01/12 02:03:31;;;;;;;48.23;29.70;;;4.10;99.90;;;;;;5095097;28;20180;-82
2024/01/12 02:05:57;;;;;;;47.33;28.83;;;4.10;99.90;;;;;;5095250;28;20237;-82
2024/01/12 02:08:24;;;;;;;46.93;28.23;;;4.20;99.90;;;;;;5093661;28;20187;-82
2024/01/12 02:10:52;;;;;;;48.50;30.67;;;4.20;99.90;;;;;;5093378;28;20208;-82
2024/01/12 02:13:18;;;;;;;53.57;30.97;;;4.10;99.90;;;;;;5093801;28;20168;-83
2024/01/12 02:15:44;;;;;;;48.97;31.03;;;4.10;99.90;;;;;;5095020;28;20164;-82
2024/01/12 02:18:10;;;;;;;48.13;28.63;;;3.90;99.90;;;;;;5094713;28;20171;-82
2024/01/12 02:20:35;;;;;;;51.73;27.13;;;4.00;99.90;;;;;;5093473;28;20179;-83
2024/01/12 02:23:01;;;;;;;45.83;28.87;;;3.80;99.90;;;;;;5095081;28;20197;-82
2024/01/12 02:25:27;;;;;;;44.83;26.70;;;3.70;99.90;;;;;;5093138;28;20296;-82
2024/01/12 02:27:52;;;;;;;47.27;26.10;;;3.90;99.90;;;;;;5094690;28;20180;-81
2024/01/12 02:30:18;;;;;;;46.40;25.67;;;3.80;99.90;;;;;;5094375;28;20227;-82
2024/01/12 02:32:44;;;;;;;44.93;25.97;;;3.80;99.90;;;;;;5094646;28;20164;-82
2024/01/12 02:35:09;;;;;;;45.17;25.13;;;3.80;99.90;;;;;;5093453;28;20180;-81
2024/01/12 02:37:35;;;;;;;45.23;24.73;;;3.80;99.90;;;;;;5093412;28;20172;-81
2024/01/12 02:40:00;;;;;;;44.57;26.00;;;3.70;99.90;;;;;;5092777;28;20262;-82
2024/01/12 02:42:26;;;;;;;47.73;24.17;;;3.80;99.90;;;;;;5093157;28;20179;-81
2024/01/12 02:44:51;;;;;;;59.23;28.03;;;3.80;99.90;;;;;;5094400;28;20172;-82
2024/01/12 02:47:17;;;;;;;43.63;24.80;;;3.80;99.90;;;;;;5094338;28;20254;-80
2024/01/12 02:49:43;;;;;;;42.83;25.37;;;3.90;99.90;;;;;;5093145;28;20543;-80
2024/01/12 02:52:08;;;;;;;49.57;25.07;;;3.90;99.90;;;;;;5093087;28;20631;-81
2024/01/12 02:54:34;;;;;;;40.70;25.00;;;3.90;99.90;;;;;;5093847;28;20206;-81
2024/01/12 02:57:00;;;;;;;41.60;24.90;;;3.90;99.90;;;;;;5092998;28;20623;-81
2024/01/12 02:59:25;;;;;;;41.40;23.63;;;3.90;99.90;;;;;;5092819;28;20176;-81
2024/01/12 03:01:51;;;;;;;46.23;23.57;;;3.80;99.90;;;;;;5092738;28;20236;-81
2024/01/12 03:04:16;;;;;;;44.57;24.97;;;3.80;99.90;;;;;;5092799;28;20642;-80
2024/01/12 03:06:42;;;;;;;44.97;24.57;;;3.80;99.90;;;;;;5092679;28;20646;-83
2024/01/12 03:09:08;;;;;;;47.87;24.70;;;3.70;99.90;;;;;;5093564;28;20320;-81
2024/01/12 03:11:33;;;;;;;47.60;25.67;;;3.70;99.90;;;;;;5093957;28;20261;-81
2024/01/12 03:13:59;;;;;;;43.13;24.67;;;3.80;99.90;;;;;;5093942;28;20167;-81
2024/01/12 03:16:25;;;;;;;43.87;25.73;;;3.80;99.90;;;;;;5093842;28;20202;-81
2024/01/12 03:18:50;;;;;;;46.87;24.90;;;3.90;99.90;;;;;;5093776;28;20168;-81
2024/01/12 03:21:17;;;;;;;44.57;25.17;;;3.90;99.90;;;;;;5093839;28;20293;-81
2024/01/12 03:23:42;;;;;;;45.17;26.00;;;4.00;99.90;;;;;;5092280;28;20176;-81
2024/01/12 03:26:08;;;;;;;44.77;25.90;;;3.80;99.90;;;;;;5093670;28;20168;-81
2024/01/12 03:28:37;;;;;;;47.57;24.17;;;3.80;99.90;;;;;;5092143;28;20223;-80
2024/01/12 03:31:06;;;;;;;41.23;23.57;;;3.80;99.90;;;;;;5093468;28;20203;-81
2024/01/12 03:33:32;;;;;;;46.80;25.03;;;3.70;99.90;;;;;;5093734;28;20167;-80
2024/01/12 03:35:57;;;;;;;42.27;24.93;;;3.80;99.90;;;;;;5092255;28;20172;-81
2024/01/12 03:38:23;;;;;;;43.20;23.57;;;3.90;99.90;;;;;;5091434;28;20168;-80
2024/01/12 03:40:49;;;;;;;43.50;24.40;;;3.80;99.90;;;;;;5093360;28;20172;-80
2024/01/12 03:43:14;;;;;;;41.90;23.80;;;3.70;99.90;;;;;;5092095;28;20183;-81
2024/01/12 03:45:40;;;;;;;43.47;23.70;;;3.70;99.90;;;;;;5093432;28;20174;-81
2024/01/12 03:48:06;;;;;;;46.37;24.00;;;3.60;99.90;;;;;;5093303;28;20175;-81
2024/01/12 03:50:32;;;;;;;44.10;21.63;;;3.70;99.90;;;;;;5091997;28;20207;-81
2024/01/12 03:52:57;;;;;;;41.73;21.70;;;3.70;99.90;;;;;;5093107;28;20160;-82
2024/01/12 03:55:23;;;;;;;37.60;21.30;;;3.70;99.90;;;;;;5091845;28;20175;-81
2024/01/12 03:57:49;;;;;;;43.40;21.60;;;3.80;99.90;;;;;;5093283;28;20219;-81
2024/01/12 04:00:15;;;;;;;41.77;21.97;;;3.80;99.90;;;;;;5093153;28;20168;-81
2024/01/12 04:02:41;;;;;;;41.43;22.17;;;3.90;99.90;;;;;;5093368;28;20195;-81
2024/01/12 04:05:07;;;;;;;46.47;22.17;;;3.90;99.90;;;;;;5093190;28;20542;-81
2024/01/12 04:07:32;;;;;;;40.60;21.77;;;3.90;99.90;;;;;;5091284;28;20172;-81
2024/01/12 04:09:58;;;;;;;45.43;22.70;;;3.90;99.90;;;;;;5092013;28;20734;-81
2024/01/12 04:12:23;;;;;;;46.77;21.23;;;3.80;99.90;;;;;;5091728;28;20200;-80
2024/01/12 04:14:49;;;;;;;40.47;22.57;;;3.80;99.90;;;;;;5091462;28;20642;-81
2024/01/12 04:17:15;;;;;;;43.53;22.43;;;3.70;99.90;;;;;;5091878;28;20183;-81
2024/01/12 04:19:40;;;;;;;39.67;21.57;;;3.80;99.90;;;;;;5092902;28;20160;-81
2024/01/12 04:22:06;;;;;;;41.23;22.80;;;3.90;99.90;;;;;;5090987;28;20176;-81
2024/01/12 04:24:31;;;;;;;38.67;22.47;;;4.00;99.90;;;;;;5092811;28;20164;-80
2024/01/12 04:26:57;;;;;;;44.77;23.47;;;4.00;99.90;;;;;;5091425;28;20172;-80
2024/01/12 04:29:22;;;;;;;41.90;21.17;;;4.10;99.90;;;;;;5092680;28;20250;-81
2024/01/12 04:31:48;;;;;;;42.47;22.80;;;4.10;99.90;;;;;;5092778;28;20208;-81
2024/01/12 04:34:15;;;;;;;42.40;23.57;;;4.00;99.90;;;;;;5091261;28;20168;-80
2024/01/12 04:36:41;;;;;;;45.17;22.27;;;4.00;99.90;;;;;;5092446;28;20173;-81
2024/01/12 04:39:07;;;;;;;44.97;23.37;;;4.10;99.90;;;;;;5092889;28;20631;-80
2024/01/12 04:41:32;;;;;;;42.23;22.30;;;4.10;99.90;;;;;;5091322;28;20214;-80
2024/01/12 04:43:58;;;;;;;43.23;22.57;;;4.10;99.90;;;;;;5091183;28;20533;-81
2024/01/12 04:46:23;;;;;;;39.47;21.73;;;4.20;99.90;;;;;;5091162;28;20222;-81
2024/01/12 04:48:49;;;;;;;41.43;22.60;;;4.20;99.90;;;;;;5091575;28;20168;-81
2024/01/12 04:51:14;;;;;;;44.67;23.90;;;4.40;99.90;;;;;;5094765;28;20210;-81
2024/01/12 04:53:40;;;;;;;40.77;22.50;;;4.40;99.90;;;;;;5095239;28;20698;-81
2024/01/12 04:56:06;;;;;;;47.60;23.27;;;4.50;99.90;;;;;;5094908;28;20183;-80
2024/01/12 04:58:31;;;;;;;41.77;22.00;;;4.40;99.90;;;;;;5095870;28;20289;-80
2024/01/12 05:00:57;;;;;;;41.53;22.27;;;4.50;99.90;;;;;;5094638;28;20172;-81
2024/01/12 05:03:22;;;;;;;43.20;21.77;;;4.40;99.90;;;;;;5094871;28;20694;-81
2024/01/12 05:05:48;;;;;;;41.80;21.47;;;4.30;99.90;;;;;;5094273;28;20172;-81
2024/01/12 05:08:13;;;;;;;42.47;22.03;;;4.40;99.90;;;;;;5094838;28;20183;-82
2024/01/12 05:10:39;;;;;;;41.03;21.60;;;4.40;99.90;;;;;;5094404;28;20207;-81
2024/01/12 05:13:05;;;;;;;44.27;20.97;;;4.30;99.90;;;;;;5096073;28;20164;-80
2024/01/12 05:15:30;;;;;;;42.73;21.33;;;4.20;99.90;;;;;;5094076;28;20727;-81
2024/01/12 05:17:56;;;;;;;38.43;18.90;;;4.30;99.90;;;;;;5095508;28;20207;-80
2024/01/12 05:20:21;;;;;;;38.77;18.40;;;4.30;99.90;;;;;;5095108;28;20172;-80
2024/01/12 05:22:47;;;;;;;39.87;18.57;;;4.10;99.90;;;;;;5095482;28;20183;-80
2024/01/12 05:25:13;;;;;;;34.83;19.47;;;4.10;99.90;;;;;;5095814;28;20229;-80
2024/01/12 05:27:38;;;;;;;37.03;18.97;;;4.10;99.90;;;;;;5095237;28;20254;-80
2024/01/12 05:30:05;;;;;;;36.90;18.80;;;4.10;99.90;;;;;;5093997;28;20234;-80
2024/01/12 05:32:31;;;;;;;38.83;19.73;;;4.20;99.90;;;;;;5095075;28;20168;-80
2024/01/12 05:34:57;;;;;;;39.57;18.57;;;4.20;99.90;;;;;;5094909;28;20168;-82
2024/01/12 05:37:23;;;;;;;38.13;16.97;;;4.10;99.90;;;;;;5095620;28;20168;-80
2024/01/12 05:39:49;;;;;;;37.00;17.63;;;4.10;99.90;;;;;;5095129;28;20164;-80
2024/01/12 05:42:14;;;;;;;30.03;17.00;;;4.10;99.90;;;;;;5094979;28;20164;-81
2024/01/12 05:44:40;;;;;;;35.93;16.77;;;4.20;99.90;;;;;;5095440;28;20207;-81
2024/01/12 05:47:06;;;;;;;39.70;16.57;;;4.10;99.90;;;;;;5094830;28;20167;-80
2024/01/12 05:49:32;;;;;;;35.70;15.53;;;4.00;99.90;;;;;;5094810;28;20217;-81
2024/01/12 05:51:57;;;;;;;30.63;14.30;;;4.00;99.90;;;;;;5094780;28;20207;-81
2024/01/12 05:54:23;;;;;;;34.30;14.77;;;4.00;99.90;;;;;;5094219;28;20175;-81
2024/01/12 05:56:49;;;;;;;27.93;13.20;;;4.00;99.90;;;;;;5094979;28;20168;-81
2024/01/12 05:59:15;;;;;;;27.43;12.93;;;3.90;99.90;;;;;;5094726;28;20626;-82
2024/01/12 06:01:40;;;;;;;25.70;12.53;;;3.80;99.90;;;;;;5094511;28;20188;-81
2024/01/12 06:04:06;;;;;;;27.43;12.60;;;3.80;99.90;;;;;;5094505;28;20187;-81
2024/01/12 06:06:32;;;;;;;31.73;12.93;;;3.70;99.90;;;;;;5094926;28;20213;-81
2024/01/12 06:08:57;;;;;;;27.43;12.10;;;3.70;99.90;;;;;;5094705;28;20510;-81
2024/01/12 06:11:23;;;;;;;30.27;13.93;;;3.70;99.90;;;;;;5094543;28;20220;-82
2024/01/12 06:13:48;;;;;;;32.57;13.50;;;3.70;99.90;;;;;;5094905;28;20168;-82
2024/01/12 06:16:14;;;;;;;27.93;13.97;;;3.80;99.90;;;;;;5092759;28;20171;-81
2024/01/12 06:18:40;;;;;;;29.87;13.07;;;3.80;99.90;;;;;;5092740;28;20214;-83
2024/01/12 06:21:05;;;;;;;30.93;13.43;;;3.70;99.90;;;;;;5092951;28;20229;-82
2024/01/12 06:23:31;;;;;;;27.10;11.73;;;3.70;99.90;;;;;;5093618;28;20266;-82
2024/01/12 06:25:57;;;;;;;30.10;11.80;;;3.60;99.90;;;;;;5092573;28;20635;-82
2024/01/12 06:28:22;;;;;;;30.33;13.07;;;3.50;99.90;;;;;;5093115;28;20262;-83
2024/01/12 06:30:48;;;;;;;28.70;12.77;;;3.50;99.90;;;;;;5093802;28;20291;-82
2024/01/12 06:33:16;;;;;;;31.67;13.30;;;3.50;99.90;;;;;;5091892;28;20168;-82
2024/01/12 06:35:42;;;;;;;27.43;12.00;;;3.60;99.90;;;;;;5092599;28;20171;-81
2024/01/12 06:38:10;;;;;;;30.33;13.67;;;3.50;99.90;;;;;;5093731;28;20160;-82
2024/01/12 06:40:36;;;;;;;37.40;14.13;;;3.50;99.90;;;;;;5092226;28;20218;-82
2024/01/12 06:43:02;;;;;;;22.27;12.57;;;3.40;99.90;;;;;;5094966;28;20160;-80
2024/01/12 06:45:27;;;;;;;28.83;13.23;;;3.40;99.90;;;;;;5093501;28;20731;-82
2024/01/12 06:47:53;;;;;;;27.13;13.00;;;3.40;99.90;;;;;;5093109;28;20640;-81
2024/01/12 06:50:19;;;;;;;25.10;11.83;;;3.60;99.90;;;;;;5093344;28;20207;-82
2024/01/12 06:52:44;;;;;;;37.97;15.23;;;3.40;99.90;;;;;;5093158;28;20489;-82
2024/01/12 06:55:10;;;;;;;36.83;16.17;;;3.40;99.90;;;;;;5093642;28;20179;-84
2024/01/12 06:57:36;;;;;;;36.60;15.67;;;3.40;99.90;;;;;;5091821;28;20229;-83
2024/01/12 07:00:01;;;;;;;34.50;15.80;;;3.40;99.90;;;;;;5093853;28;20563;-81
2024/01/12 07:02:27;;;;;;;37.50;17.20;;;3.40;99.90;;;;;;5093496;28;20198;-82
2024/01/12 07:04:52;;;;;;;30.63;15.47;;;3.30;99.90;;;;;;5093790;28;20274;-83
2024/01/12 07:07:18;;;;;;;35.80;16.43;;;3.30;99.90;;;;;;5093135;28;20677;-82
2024/01/12 07:09:45;;;;;;;31.07;16.07;;;3.30;99.90;;;;;;5092775;28;20243;-83
2024/01/12 07:12:11;;;;;;;38.13;17.10;;;3.30;99.90;;;;;;5092254;28;20163;-83
2024/01/12 07:14:36;;;;;;;38.47;16.73;;;3.40;99.90;;;;;;5092645;28;20175;-83
2024/01/12 07:17:02;;;;;;;39.73;17.23;;;3.40;99.90;;;;;;5091367;28;20542;-81
2024/01/12 07:19:27;;;;;;;35.93;17.40;;;3.40;99.90;;;;;;5092047;28;20600;-83
2024/01/12 07:21:53;;;;;;;32.73;16.93;;;3.40;99.90;;;;;;5091293;28;20233;-84
2024/01/12 07:24:19;;;;;;;33.23;16.57;;;3.30;99.90;;;;;;5093222;28;20210;-83
2024/01/12 07:26:45;;;;;;;37.80;17.10;;;3.30;99.90;;;;;;5092742;28;20262;-81
2024/01/12 07:29:10;;;;;;;27.63;15.40;;;3.30;99.90;;;;;;5090947;28;20255;-82
2024/01/12 07:31:37;;;;;;;35.30;18.07;;;3.20;99.90;;;;;;5092075;28;20314;-82
2024/01/12 07:34:04;;;;;;;35.83;17.17;;;3.30;99.90;;;;;;5090944;28;20211;-84
2024/01/12 07:36:29;;;;;;;35.53;17.03;;;3.30;99.90;;;;;;5092327;28;20217;-83
2024/01/12 07:38:57;;;;;;;33.53;17.47;;;3.30;99.90;;;;;;5092703;28;20168;-82
2024/01/12 07:41:22;;;;;;;38.87;18.40;;;3.30;99.90;;;;;;5092454;28;20172;-83
2024/01/12 07:43:48;;;;;;;33.50;17.77;;;3.30;99.90;;;;;;5092951;28;20176;-80
2024/01/12 07:46:17;;;;;;;28.53;16.77;;;3.40;99.90;;;;;;5091184;28;20209;-82
2024/01/12 07:48:44;;;;;;;31.60;16.90;;;3.50;99.90;;;;;;5091385;28;20178;-81
2024/01/12 07:51:09;;;;;;;39.50;16.93;;;3.50;99.90;;;;;;5092616;28;20249;-82
2024/01/12 07:53:35;;;;;;;35.13;16.73;;;3.50;99.90;;;;;;5093001;28;20195;-83
2024/01/12 07:56:00;;;;;;;33.53;16.67;;;3.40;99.90;;;;;;5092289;28;20172;-82
2024/01/12 07:58:26;;;;;;;32.80;16.90;;;3.40;99.90;;;;;;5090623;28;20317;-83
2024/01/12 08:00:51;;;;;;;31.47;17.00;;;3.40;99.90;;;;;;5091807;28;20228;-83
2024/01/12 08:03:17;;;;;;;39.37;17.23;;;3.30;99.90;;;;;;5090828;28;20215;-84
2024/01/12 08:05:43;;;;;;;31.93;16.47;;;3.30;99.90;;;;;;5091124;28;20184;-83
2024/01/12 08:08:10;;;;;;;30.77;15.33;;;3.30;99.90;;;;;;5091132;28;20649;-83
2024/01/12 08:10:35;;;;;;;39.23;17.53;;;3.30;99.90;;;;;;5091364;28;20302;-82
2024/01/12 08:13:03;;;;;;;33.50;16.90;;;3.30;99.90;;;;;;5091030;28;20207;-82
2024/01/12 08:15:29;;;;;;;33.90;17.40;;;3.30;99.90;;;;;;5091002;28;20172;-84
2024/01/12 08:17:55;;;;;;;33.50;16.80;;;3.30;99.90;;;;;;5092380;28;20281;-82
2024/01/12 08:20:20;;;;;;;33.97;16.87;;;3.40;99.90;;;;;;5092771;28;20175;-83
2024/01/12 08:22:46;;;;;;;32.03;16.10;;;3.50;99.90;;;;;;5091730;28;20188;-82
2024/01/12 08:25:11;;;;;;;28.50;16.13;;;3.60;99.90;;;;;;5094718;28;20176;-82
2024/01/12 08:27:37;;;;;;;31.00;15.80;;;3.70;99.90;;;;;;5096653;28;20254;-82
2024/01/12 08:30:03;;;;;;;31.37;16.03;;;3.80;99.90;;;;;;5096361;28;20676;-84
2024/01/12 08:32:29;;;;;;;23.90;11.73;;;3.80;99.90;;;;;;5096400;28;20643;-85
2024/01/12 08:34:54;;;;;;;30.17;14.37;;;3.60;99.90;;;;;;5095154;28;20197;-84
2024/01/12 08:37:20;;;;;;;31.23;14.17;;;3.40;99.90;;;;;;5096265;28;20175;-84
2024/01/12 08:39:45;;;;;;;29.63;14.37;;;3.40;99.90;;;;;;5094712;28;20172;-83
2024/01/12 08:42:11;;;;;;;33.27;15.43;;;3.30;99.90;;;;;;5095680;28;20172;-84
2024/01/12 08:44:36;;;;;;;26.40;13.53;;;3.30;99.90;;;;;;5096413;28;20636;-84
2024/01/12 08:47:02;;;;;;;31.43;14.37;;;3.20;99.90;;;;;;5095738;28;20176;-83
2024/01/12 08:49:27;;;;;;;24.77;11.83;;;3.30;99.90;;;;;;5096649;28;20528;-83
2024/01/12 08:51:53;;;;;;;25.60;13.07;;;3.20;99.90;;;;;;5094583;28;20211;-84
2024/01/12 08:54:18;;;;;;;31.13;13.03;;;3.30;99.90;;;;;;5096132;28;20513;-83
2024/01/12 08:56:44;;;;;;;25.40;13.17;;;3.30;99.90;;;;;;5095741;28;20634;-83
2024/01/12 08:59:09;;;;;;;27.80;13.53;;;3.30;99.90;;;;;;5095855;28;20183;-84
2024/01/12 09:01:35;;;;;;;25.57;12.97;;;3.50;99.90;;;;;;5095770;28;20322;-83
2024/01/12 09:04:01;;;;;;;27.70;13.73;;;3.50;99.90;;;;;;5096022;28;20217;-83
2024/01/12 09:06:27;;;;;;;27.23;13.97;;;3.50;99.90;;;;;;5094246;28;20168;-82
2024/01/12 09:08:54;;;;;;;22.60;12.87;;;3.50;99.90;;;;;;5093303;28;20714;-83
2024/01/12 09:11:20;;;;;;;26.93;13.40;;;3.60;99.90;;;;;;5095422;28;20214;-84
2024/01/12 09:13:45;;;;;;;27.77;14.30;;;3.50;99.90;;;;;;5094384;28;20254;-83
2024/01/12 09:16:11;;;;;;;25.67;12.30;;;3.50;99.90;;;;;;5094589;28;20182;-83
2024/01/12 09:18:37;;;;;;;24.73;12.57;;;3.60;99.90;;;;;;5094224;28;20172;-83
2024/01/12 09:21:03;;;;;;;29.60;13.53;;;3.60;99.90;;;;;;5094439;28;20271;-84
2024/01/12 09:23:29;;;;;;;26.23;13.60;;;3.60;99.90;;;;;;5096558;28;20176;-83
2024/01/12 09:25:54;;;;;;;24.30;13.23;;;3.60;99.90;;;;;;5098517;28;20175;-83
2024/01/12 09:28:20;;;;;;;28.53;13.13;;;3.70;99.90;;;;;;5097022;28;20519;-83
2024/01/12 09:30:47;;;;;;;28.23;13.40;;;3.80;99.90;;;;;;5098299;28;20204;-83
2024/01/12 09:33:15;;;;;;;27.93;13.93;;;3.80;99.90;;;;;;5097616;28;20236;-83
2024/01/12 09:35:41;;;;;;;25.43;13.17;;;3.80;99.90;;;;;;5093780;28;20630;-82
2024/01/12 09:38:07;;;;;;;33.50;15.33;;;3.80;99.90;;;;;;5094393;28;20260;-82
2024/01/12 09:40:33;;;;;;;31.90;13.77;;;3.80;99.90;;;;;;5095555;28;20198;-84
2024/01/12 09:43:00;;;;;;;28.53;15.20;;;4.00;99.90;;;;;;5093874;28;20175;-84
2024/01/12 09:45:26;;;;;;;33.70;16.60;;;4.00;99.90;;;;;;5094624;28;20176;-83
2024/01/12 09:47:52;;;;;;;34.87;16.70;;;4.00;99.90;;;;;;5095478;28;20191;-83
2024/01/12 09:50:21;;;;;;;34.40;17.73;;;4.00;99.90;;;;;;5095155;28;20245;-83
2024/01/12 09:52:49;;;;;;;31.33;16.53;;;4.10;99.90;;;;;;5095449;28;20176;-83
2024/01/12 09:55:14;;;;;;;34.50;16.53;;;4.00;99.90;;;;;;5093329;28;20237;-84
2024/01/12 09:57:41;;;;;;;28.83;16.40;;;4.10;99.90;;;;;;5094886;28;20517;-83
2024/01/12 10:00:09;;;;;;;26.17;15.57;;;4.00;99.90;;;;;;5095258;28;20546;-82
2024/01/12 10:02:34;;;;;;;35.13;16.53;;;4.00;99.90;;;;;;5093347;28;20270;-83
2024/01/12 10:05:00;;;;;;;30.00;15.87;;;4.10;99.90;;;;;;5094913;28;20214;-82
2024/01/12 10:07:26;;;;;;;33.97;15.73;;;4.20;99.90;;;;;;5095383;28;20315;-81
2024/01/12 10:09:52;;;;;;;30.73;15.47;;;4.20;99.90;;;;;;5095964;28;20203;-83
2024/01/12 10:12:18;;;;;;;27.80;15.37;;;4.10;99.90;;;;;;5093071;28;20176;-82
2024/01/12 10:14:43;;;;;;;29.20;15.47;;;4.00;99.90;;;;;;5093408;28;20179;-81
2024/01/12 10:17:11;;;;;;;32.40;16.00;;;4.00;99.90;;;;;;5092902;28;20231;-82
2024/01/12 10:19:36;;;;;;;34.23;18.53;;;4.10;99.90;;;;;;5092470;28;20175;-82
2024/01/12 10:22:03;;;;;;;37.73;16.83;;;4.10;99.90;;;;;;5093301;28;20182;-82
2024/01/12 10:24:30;;;;;;;28.87;15.83;;;4.10;99.90;;;;;;5094067;28;20226;-82
2024/01/12 10:27:00;;;;;;;38.67;15.77;;;3.90;99.90;;;;;;5094612;28;20160;-82
2024/01/12 10:29:26;;;;;;;35.70;15.77;;;3.90;99.90;;;;;;5093980;28;20228;-83
2024/01/12 10:31:52;;;;;;;29.23;13.47;;;4.00;99.90;;;;;;5094063;28;20207;-81
2024/01/12 10:34:17;;;;;;;37.43;15.67;;;4.00;99.90;;;;;;5094359;28;20164;-83
2024/01/12 10:36:49;;;;;;;36.40;15.70;;;3.80;99.90;;;;;;5094354;28;20173;-83
2024/01/12 10:39:18;;;;;;;30.47;14.40;;;3.80;99.90;;;;;;5092662;28;20172;-83
2024/01/12 10:41:46;;;;;;;31.90;15.70;;;3.70;99.90;;;;;;5093183;28;20221;-84
2024/01/12 10:44:15;;;;;;;34.83;15.63;;;3.80;99.90;;;;;;5093742;28;20702;-82
2024/01/12 10:46:45;;;;;;;30.97;16.67;;;3.90;99.90;;;;;;5093208;28;20209;-81
2024/01/12 10:49:18;;;;;;;31.17;15.13;;;3.90;99.90;;;;;;5092688;28;20172;-83
2024/01/12 10:52:00;;;;;;;30.83;15.23;;;3.90;99.90;;;;;;5093509;28;20554;-82
2024/01/12 10:54:29;;;;;;;34.47;15.50;;;3.90;99.90;;;;;;5093457;28;20163;-82
2024/01/12 10:56:55;;;;;;;36.33;16.50;;;3.90;99.90;;;;;;5093483;28;20179;-82
2024/01/12 10:59:25;;;;;;;29.00;15.67;;;3.80;99.90;;;;;;5092177;28;20196;-83
2024/01/12 11:01:51;;;;;;;30.37;15.43;;;3.70;99.90;;;;;;5093848;28;20275;-81
2024/01/12 11:04:17;;;;;;;29.67;14.80;;;3.80;99.90;;;;;;5093869;28;20207;-83
2024/01/12 11:06:55;;;;;;;33.67;15.77;;;3.90;99.90;;;;;;5093489;28;20210;-82
2024/01/12 11:09:22;;;;;;;30.30;15.33;;;4.10;99.90;;;;;;5093376;28;20178;-81
2024/01/12 11:11:56;;;;;;;29.63;13.90;;;4.20;99.90;;;;;;5093069;28;20212;-82
2024/01/12 11:14:22;;;;;;;25.97;15.83;;;4.30;99.90;;;;;;5091942;28;20164;-82
2024/01/12 11:16:50;;;;;;;28.30;15.73;;;4.30;99.90;;;;;;5093143;28;20179;-81
2024/01/12 11:19:18;;;;;;;27.07;14.60;;;4.40;99.90;;;;;;5093309;28;20160;-81
2024/01/12 11:21:44;;;;;;;27.03;13.57;;;4.40;99.90;;;;;;5091743;28;20623;-84
2024/01/12 11:24:11;;;;;;;30.27;15.10;;;4.50;99.90;;;;;;5093197;28;20172;-81
2024/01/12 11:26:37;;;;;;;27.57;13.63;;;4.40;99.90;;;;;;5093320;28;20174;-83
2024/01/12 11:29:03;;;;;;;30.73;14.47;;;4.50;99.90;;;;;;5091618;28;20250;-82
2024/01/12 11:31:29;;;;;;;27.97;15.33;;;4.50;99.90;;;;;;5093529;28;20207;-82
2024/01/12 11:34:02;;;;;;;33.23;15.07;;;4.50;99.90;;;;;;5091147;28;20171;-82
2024/01/12 11:36:30;;;;;;;39.37;15.23;;;4.60;99.90;;;;;;5091590;28;20167;-81
2024/01/12 11:38:59;;;;;;;27.13;13.80;;;4.70;99.90;;;;;;5091435;28;20207;-83
2024/01/12 11:41:29;;;;;;;37.73;16.13;;;4.90;99.90;;;;;;5090735;28;20258;-82
2024/01/12 11:43:56;;;;;;;42.03;14.97;;;4.80;99.90;;;;;;5091660;28;20282;-83
2024/01/12 11:46:26;;;;;;;37.23;16.77;;;4.70;99.90;;;;;;5092920;28;20160;-81
2024/01/12 11:48:52;;;;;;;31.97;16.83;;;4.60;99.90;;;;;;5092684;28;20175;-82
2024/01/12 11:51:22;;;;;;;32.63;16.93;;;4.60;99.90;;;;;;5091238;28;20208;-82
2024/01/12 11:53:56;;;;;;;27.20;14.63;;;4.90;99.90;;;;;;5091523;28;20225;-81
2024/01/12 11:56:26;;;;;;;34.90;13.03;;;5.10;99.90;;;;;;5091458;28;20615;-81
2024/01/12 11:58:52;;;;;;;26.63;14.20;;;5.20;99.90;;;;;;5093583;28;20188;-83
2024/01/12 12:01:22;;;;;;;27.87;12.80;;;5.20;99.90;;;;;;5095208;28;20246;-82
2024/01/12 12:03:49;;;;;;;28.07;13.40;;;5.20;99.90;;;;;;5095340;28;20196;-82
2024/01/12 12:06:15;;;;;;;27.27;13.60;;;5.00;99.90;;;;;;5094952;28;20673;-80
2024/01/12 12:08:41;;;;;;;27.43;14.10;;;4.90;99.90;;;;;;5096946;28;20164;-81
2024/01/12 12:11:06;;;;;;;33.27;15.03;;;5.20;99.90;;;;;;5095687;28;20698;-81
2024/01/12 12:13:37;;;;;;;26.27;14.40;;;5.40;99.90;;;;;;5096700;28;20164;-81
2024/01/12 12:16:03;;;;;;;26.63;12.23;;;5.60;99.90;;;;;;5096472;28;20237;-82
2024/01/12 12:18:32;;;;;;;24.70;13.03;;;5.70;99.90;;;;;;5096570;28;20176;-83
2024/01/12 12:20:59;;;;;;;29.67;13.10;;;5.80;99.90;;;;;;5095207;28;20178;-83
2024/01/12 12:23:25;;;;;;;25.67;12.53;;;5.70;99.90;;;;;;5096829;28;20176;-82
2024/01/12 12:25:52;;;;;;;25.13;11.97;;;5.80;99.90;;;;;;5096485;28;20168;-82
2024/01/12 12:28:18;;;;;;;22.53;11.73;;;5.90;99.90;;;;;;5096459;28;20175;-83
2024/01/12 12:30:43;;;;;;;31.50;12.70;;;6.20;99.90;;;;;;5096641;28;20203;-83